createdAt,value
2023-05-08T00:01:07.626Z,8.13
2023-05-08T00:06:09.161Z,8.73
2023-05-08T00:11:10.616Z,10.27
2023-05-08T00:16:12.682Z,7.30
2023-05-08T00:21:14.324Z,7.80
2023-05-08T00:26:15.772Z,9.88
2023-05-08T00:31:17.238Z,7.95
2023-05-08T00:36:18.718Z,10.13
2023-05-08T00:41:20.167Z,8.18
2023-05-08T00:46:21.733Z,6.65
2023-05-08T00:51:23.274Z,9.05
2023-05-08T00:56:24.834Z,8.23
2023-05-08T01:01:26.368Z,9.73
2023-05-08T01:06:27.865Z,10.95
2023-05-08T01:11:45.952Z,10.15
2023-05-08T01:16:59.046Z,9.27
2023-05-08T01:22:05.742Z,9.05
2023-05-08T01:27:25.406Z,10.50
2023-05-08T01:32:28.422Z,10.98
2023-05-08T01:37:32.856Z,9.13
2023-05-08T01:42:49.461Z,10.05
2023-05-08T01:47:55.717Z,13.15
2023-05-08T01:52:58.602Z,11.20
2023-05-08T01:58:00.152Z,11.73
2023-05-08T02:03:01.676Z,10.80
2023-05-08T02:08:03.366Z,10.93
2023-05-08T02:13:04.980Z,7.95
2023-05-08T02:18:07.566Z,9.10
2023-05-08T02:28:10.468Z,8.95
2023-05-08T02:33:12.511Z,8.88
2023-05-08T02:38:13.975Z,8.93
2023-05-08T02:43:15.417Z,9.75
2023-05-08T02:48:23.065Z,8.90
2023-05-08T02:53:35.941Z,7.53
2023-05-08T02:58:43.541Z,9.55
2023-05-08T03:03:46.145Z,11.40
2023-05-08T03:13:49.300Z,9.80
2023-05-08T03:18:55.859Z,8.77
2023-05-08T03:23:58.121Z,11.52
2023-05-08T03:28:59.572Z,13.18
2023-05-08T03:34:01.023Z,18.08
2023-05-08T03:39:02.497Z,11.13
2023-05-08T03:44:03.999Z,12.40
2023-05-08T03:49:05.478Z,11.10
2023-05-08T03:54:07.064Z,8.55
2023-05-08T03:59:15.193Z,17.10
2023-05-08T04:04:18.253Z,9.73
2023-05-08T04:09:38.890Z,12.70
2023-05-08T04:14:44.149Z,11.68
2023-05-08T04:19:46.719Z,8.38
2023-05-08T04:24:48.169Z,9.70
2023-05-08T04:29:49.622Z,17.33
2023-05-08T04:34:51.265Z,9.38
2023-05-08T04:39:52.792Z,9.25
2023-05-08T04:44:54.362Z,12.65
2023-05-08T04:49:55.829Z,9.35
2023-05-08T04:54:57.289Z,8.75
2023-05-08T04:59:58.773Z,15.73
2023-05-08T05:05:01.308Z,10.70
2023-05-08T05:10:02.936Z,9.55
2023-05-08T05:15:04.692Z,9.15
2023-05-08T05:20:08.564Z,9.55
2023-05-08T05:25:10.358Z,10.70
2023-05-08T05:30:12.466Z,9.75
2023-05-08T05:35:14.301Z,10.30
2023-05-08T05:40:15.920Z,7.40
2023-05-08T05:45:17.370Z,10.68
2023-05-08T05:50:18.941Z,11.35
2023-05-08T05:55:20.594Z,11.20
2023-05-08T06:05:24.562Z,12.45
2023-05-08T06:10:26.032Z,9.60
2023-05-08T06:15:27.488Z,9.90
2023-05-08T06:20:28.944Z,10.00
2023-05-08T06:25:31.030Z,9.73
2023-05-08T06:30:32.524Z,11.27
2023-05-08T06:35:34.005Z,8.75
2023-05-08T06:40:35.464Z,9.88
2023-05-08T06:45:36.918Z,11.65
2023-05-08T06:50:39.304Z,9.60
2023-05-08T07:02:02.463Z,13.20
2023-05-08T07:07:04.057Z,10.93
2023-05-08T07:12:05.609Z,10.18
2023-05-08T07:17:07.117Z,10.63
2023-05-08T07:22:08.769Z,12.20
2023-05-08T07:27:10.343Z,13.88
2023-05-08T07:32:11.928Z,9.95
2023-05-08T07:37:13.422Z,10.27
2023-05-08T07:42:14.921Z,8.77
2023-05-08T07:47:16.491Z,9.70
2023-05-08T07:52:18.037Z,11.55
2023-05-08T07:57:19.565Z,9.85
2023-05-08T08:02:21.383Z,9.98
2023-05-08T08:07:22.960Z,10.23
2023-05-08T08:12:24.447Z,11.27
2023-05-08T08:17:28.452Z,9.68
2023-05-08T08:22:30.592Z,9.95
2023-05-08T08:27:32.254Z,16.02
2023-05-08T08:32:33.777Z,12.38
2023-05-08T08:37:35.313Z,10.52
2023-05-08T08:42:37.371Z,11.30
2023-05-08T08:47:41.196Z,13.10
2023-05-08T08:53:02.099Z,14.00
2023-05-08T08:58:13.629Z,14.10
2023-05-08T09:03:15.530Z,13.80
2023-05-08T09:08:18.688Z,10.60
2023-05-08T09:13:20.250Z,13.55
2023-05-08T09:18:21.772Z,16.38
2023-05-08T09:23:23.314Z,14.10
2023-05-08T09:28:25.335Z,14.85
2023-05-08T09:33:27.982Z,15.75
2023-05-08T09:38:37.464Z,18.55
2023-05-08T09:43:39.099Z,18.92
2023-05-08T09:48:40.606Z,14.63
2023-05-08T09:53:42.118Z,12.73
2023-05-08T09:58:44.190Z,13.93
2023-05-08T10:03:49.258Z,15.60
2023-05-08T10:09:06.601Z,16.10
2023-05-08T10:14:08.330Z,18.48
2023-05-08T10:19:14.538Z,17.10
2023-05-08T10:24:17.605Z,14.40
2023-05-08T10:29:21.852Z,15.45
2023-05-08T10:34:23.409Z,18.30
2023-05-08T10:39:25.715Z,16.85
2023-05-08T10:44:27.338Z,15.30
2023-05-08T10:49:38.768Z,11.95
2023-05-08T10:55:04.639Z,17.05
2023-05-08T11:00:06.879Z,15.90
2023-05-08T11:05:16.359Z,20.25
2023-05-08T11:10:17.856Z,14.20
2023-05-08T11:15:24.135Z,18.30
2023-05-08T11:20:39.834Z,16.35
2023-05-08T11:30:44.330Z,17.08
2023-05-08T11:35:50.012Z,17.70
2023-05-08T11:40:58.397Z,16.40
2023-05-08T11:46:04.292Z,17.60
2023-05-08T11:51:06.093Z,16.77
2023-05-08T11:56:08.129Z,16.45
2023-05-08T12:06:11.103Z,21.23
2023-05-08T12:11:12.642Z,17.00
2023-05-08T12:16:14.218Z,19.80
2023-05-08T12:21:16.096Z,20.30
2023-05-08T12:26:17.597Z,16.80
2023-05-08T12:31:19.110Z,19.17
2023-05-08T12:36:21.092Z,18.13
2023-05-08T12:41:24.024Z,17.10
2023-05-08T12:46:25.675Z,19.20
2023-05-08T12:51:30.932Z,16.67
2023-05-08T12:56:32.431Z,16.77
2023-05-08T13:01:33.972Z,19.60
2023-05-08T13:06:35.541Z,15.10
2023-05-08T13:11:38.418Z,15.80
2023-05-08T13:16:46.263Z,17.33
2023-05-08T13:21:48.146Z,16.58
2023-05-08T13:26:49.703Z,16.60
2023-05-08T13:31:51.223Z,15.50
2023-05-08T13:36:52.904Z,18.33
2023-05-08T13:41:54.400Z,16.98
2023-05-08T13:46:55.905Z,16.75
2023-05-08T13:51:57.537Z,18.40
2023-05-08T13:56:59.029Z,16.38
2023-05-08T14:02:00.625Z,15.95
2023-05-08T14:07:04.399Z,12.13
2023-05-08T14:12:05.916Z,15.32
2023-05-08T14:17:07.488Z,12.00
2023-05-08T14:22:08.975Z,14.93
2023-05-08T14:27:10.546Z,14.40
2023-05-08T14:32:12.115Z,14.85
2023-05-08T14:37:13.666Z,17.83
2023-05-08T14:42:22.980Z,15.02
2023-05-08T14:47:25.704Z,17.15
2023-05-08T14:52:27.253Z,13.85
2023-05-08T14:57:28.798Z,14.15
2023-05-08T15:02:30.433Z,18.08
2023-05-08T15:07:31.995Z,14.65
2023-05-08T15:12:33.497Z,16.05
2023-05-08T15:17:36.438Z,15.18
2023-05-08T15:22:38.113Z,12.57
2023-05-08T15:27:39.720Z,17.20
2023-05-08T15:32:43.285Z,14.40
2023-05-08T15:37:44.874Z,14.00
2023-05-08T15:42:46.408Z,15.38
2023-05-08T15:47:47.991Z,17.55
2023-05-08T15:52:49.681Z,14.40
2023-05-08T15:57:51.240Z,15.20
2023-05-08T16:02:52.800Z,16.33
2023-05-08T16:07:55.545Z,14.18
2023-05-08T16:12:57.100Z,14.18
2023-05-08T16:17:58.632Z,12.43
2023-05-08T16:23:00.185Z,12.48
2023-05-08T16:28:01.983Z,13.15
2023-05-08T16:33:03.653Z,11.80
2023-05-08T16:38:06.104Z,14.77
2023-05-08T16:43:08.654Z,14.23
2023-05-08T16:48:10.392Z,11.27
2023-05-08T16:53:11.996Z,13.43
2023-05-08T16:58:13.502Z,14.85
2023-05-08T17:03:15.092Z,14.00
2023-05-08T17:08:16.722Z,10.68
2023-05-08T17:13:18.359Z,10.88
2023-05-08T17:18:19.898Z,12.25
2023-05-08T17:23:21.428Z,13.70
2023-05-08T17:28:22.919Z,13.32
2023-05-08T17:33:24.494Z,13.75
2023-05-08T17:38:25.997Z,13.38
2023-05-08T17:43:28.624Z,11.15
2023-05-08T17:48:30.133Z,14.23
2023-05-08T17:53:31.879Z,11.77
2023-05-08T17:58:33.404Z,13.13
2023-05-08T18:03:34.958Z,11.70
2023-05-08T18:08:36.517Z,14.18
2023-05-08T18:13:38.127Z,13.15
2023-05-08T18:18:39.614Z,10.20
2023-05-08T18:23:41.144Z,9.90
2023-05-08T18:28:43.388Z,12.90
2023-05-08T18:33:45.937Z,11.57
2023-05-08T18:38:47.432Z,9.30
2023-05-08T18:43:48.946Z,10.63
2023-05-08T18:48:50.490Z,9.93
2023-05-08T18:53:51.989Z,8.25
2023-05-08T18:58:53.494Z,8.52
2023-05-08T19:03:55.113Z,13.77
2023-05-08T19:08:56.656Z,12.10
2023-05-08T19:13:58.157Z,8.82
2023-05-08T19:18:59.666Z,9.13
2023-05-08T19:24:01.361Z,10.80
2023-05-08T19:29:02.856Z,9.55
2023-05-08T19:34:04.375Z,8.43
2023-05-08T19:39:05.913Z,9.20
2023-05-08T19:44:07.414Z,9.77
2023-05-08T19:49:08.916Z,8.93
2023-05-08T19:54:10.433Z,8.02
2023-05-08T19:59:11.961Z,8.45
2023-05-08T20:04:13.626Z,9.77
2023-05-08T20:09:15.132Z,7.85
2023-05-08T20:14:16.630Z,8.35
2023-05-08T20:19:22.029Z,7.95
2023-05-08T20:24:23.597Z,7.80
2023-05-08T20:29:25.119Z,8.43
2023-05-08T20:34:26.601Z,7.22
2023-05-08T20:39:28.104Z,7.28
2023-05-08T20:44:29.584Z,8.48
2023-05-08T20:49:31.486Z,8.18
2023-05-08T20:54:33.040Z,6.88
2023-05-08T20:59:34.519Z,10.45
2023-05-08T21:04:36.570Z,8.63
2023-05-08T21:09:38.138Z,10.57
2023-05-08T21:14:39.625Z,9.07
2023-05-08T21:19:41.240Z,9.00
2023-05-08T21:24:43.574Z,9.95
2023-05-08T21:34:46.426Z,8.50
2023-05-08T21:39:47.950Z,7.80
2023-05-08T21:44:49.442Z,9.40
2023-05-08T21:49:51.016Z,9.07
2023-05-08T21:54:52.823Z,8.93
2023-05-08T21:59:54.375Z,6.03
2023-05-08T22:04:55.879Z,7.53
2023-05-08T22:09:57.365Z,7.53
2023-05-08T22:14:58.857Z,10.32
2023-05-08T22:20:00.340Z,7.88
2023-05-08T22:25:01.960Z,9.65
2023-05-08T22:30:03.570Z,7.50
2023-05-08T22:35:06.148Z,8.82
2023-05-08T22:40:08.196Z,9.15
2023-05-08T22:45:10.667Z,6.72
2023-05-08T22:50:12.320Z,15.80
2023-05-08T22:55:15.483Z,8.77
2023-05-08T23:00:17.430Z,6.88
2023-05-08T23:05:18.982Z,6.80
2023-05-08T23:10:20.550Z,11.55
2023-05-08T23:15:22.085Z,8.02
2023-05-08T23:20:23.618Z,5.78
2023-05-08T23:25:25.241Z,7.80
2023-05-08T23:30:26.777Z,7.93
2023-05-08T23:35:28.433Z,9.32
2023-05-08T23:40:29.937Z,6.53
2023-05-08T23:45:31.447Z,8.93
2023-05-08T23:50:32.950Z,7.03
2023-05-08T23:55:37.897Z,9.77
